Time;durP1;ratioP1;P1;durP2;ratioP2;P2;SDS_P1;SDS_P2;PMS_P1;PMS_P2;Temp;Humidity;BMP_temperature;BMP_pressure;BME280_temperature;BME280_humidity;BME280_pressure;Samples;Min_cycle;Max_cycle;Signal;HPM_P1;HPM_P2
2023/12/07 00:01:40;;;;;;;14.43;8.27;;;1.20;98.60;;;;;;5053481;28;20083;-82
2023/12/07 00:04:06;;;;;;;17.73;8.37;;;1.20;98.60;;;;;;5035501;28;20060;-82
2023/12/07 00:06:32;;;;;;;16.90;9.47;;;1.10;98.60;;;;;;5053562;28;20503;-82
2023/12/07 00:08:58;;;;;;;16.47;8.73;;;1.10;98.70;;;;;;5052717;28;20037;-82
2023/12/07 00:11:24;;;;;;;16.23;9.27;;;1.10;98.70;;;;;;5053334;28;20029;-82
2023/12/07 00:13:50;;;;;;;16.97;9.07;;;1.00;98.80;;;;;;5036025;28;20029;-82
2023/12/07 00:16:16;;;;;;;17.97;9.60;;;1.00;98.80;;;;;;5051746;28;20497;-82
2023/12/07 00:18:43;;;;;;;16.40;8.27;;;1.00;98.90;;;;;;5035156;28;20067;-82
2023/12/07 00:21:09;;;;;;;16.57;9.57;;;1.00;98.90;;;;;;5052834;28;20033;-80
2023/12/07 00:23:34;;;;;;;14.67;8.30;;;1.00;99.00;;;;;;5052738;28;20029;-80
2023/12/07 00:26:00;;;;;;;15.70;8.50;;;1.00;99.00;;;;;;5037526;28;20447;-82
2023/12/07 00:28:26;;;;;;;15.70;8.50;;;1.00;99.00;;;;;;5059542;28;20029;-82
2023/12/07 00:30:52;;;;;;;15.57;8.90;;;0.90;98.90;;;;;;5059418;28;20039;-82
2023/12/07 00:33:17;;;;;;;16.70;9.20;;;0.80;98.90;;;;;;5058174;28;20033;-82
2023/12/07 00:35:43;;;;;;;19.03;9.20;;;0.90;98.90;;;;;;5041403;28;20036;-82
2023/12/07 00:38:09;;;;;;;15.50;9.13;;;0.80;98.90;;;;;;5041355;28;20404;-82
2023/12/07 00:40:37;;;;;;;17.77;9.23;;;0.70;98.90;;;;;;5059436;28;20037;-82
2023/12/07 00:43:03;;;;;;;17.97;9.07;;;0.70;99.00;;;;;;5059333;28;20116;-82
2023/12/07 00:45:29;;;;;;;16.13;9.03;;;0.70;99.00;;;;;;5058121;28;20041;-82
2023/12/07 00:47:54;;;;;;;19.43;9.07;;;0.70;99.10;;;;;;5059435;28;20037;-82
2023/12/07 00:50:20;;;;;;;17.30;9.03;;;0.70;99.20;;;;;;5041395;28;20037;-83
2023/12/07 00:52:45;;;;;;;20.83;9.17;;;0.60;99.20;;;;;;5058975;28;20408;-82
2023/12/07 00:55:11;;;;;;;18.77;9.17;;;0.60;99.30;;;;;;5059180;28;20037;-83
2023/12/07 00:57:37;;;;;;;15.67;8.20;;;0.60;99.30;;;;;;5058027;28;20025;-82
2023/12/07 01:00:04;;;;;;;16.13;9.10;;;0.60;99.40;;;;;;5059269;28;20374;-82
2023/12/07 01:02:29;;;;;;;15.80;8.53;;;0.60;99.40;;;;;;5059116;28;20897;-82
2023/12/07 01:04:55;;;;;;;16.80;9.47;;;0.50;99.50;;;;;;5059073;28;20040;-82
2023/12/07 01:07:21;;;;;;;19.97;9.60;;;0.60;99.60;;;;;;5059086;28;20068;-82
2023/12/07 01:09:47;;;;;;;17.13;9.27;;;0.60;99.60;;;;;;5041191;28;20045;-82
2023/12/07 01:12:12;;;;;;;15.70;8.37;;;0.60;99.70;;;;;;5059157;28;20048;-82
2023/12/07 01:14:38;;;;;;;18.17;8.30;;;0.60;99.80;;;;;;5041152;28;20033;-82
2023/12/07 01:17:04;;;;;;;17.27;9.07;;;0.50;99.90;;;;;;5058982;28;20045;-82
2023/12/07 01:19:29;;;;;;;14.97;8.93;;;0.50;99.90;;;;;;5058951;28;20485;-82
2023/12/07 01:21:55;;;;;;;18.80;9.53;;;0.60;99.90;;;;;;5057637;28;20166;-82
2023/12/07 01:24:21;;;;;;;15.40;8.93;;;0.60;99.90;;;;;;5059131;28;20119;-82
2023/12/07 01:26:46;;;;;;;24.63;8.10;;;0.60;99.90;;;;;;5058788;28;20031;-82
2023/12/07 01:29:13;;;;;;;21.70;8.20;;;0.60;99.90;;;;;;5058879;28;20040;-81
2023/12/07 01:31:40;;;;;;;22.70;8.80;;;0.60;99.90;;;;;;5041005;28;20487;-82
2023/12/07 01:34:05;;;;;;;17.87;8.03;;;0.60;99.90;;;;;;5058941;28;20040;-82
2023/12/07 01:36:31;;;;;;;20.40;9.10;;;0.60;99.90;;;;;;5040425;28;20481;-82
2023/12/07 01:38:57;;;;;;;20.33;8.40;;;0.60;99.90;;;;;;5054503;28;20029;-82
2023/12/07 01:41:23;;;;;;;22.87;9.07;;;0.60;99.90;;;;;;5055364;28;20029;-82
2023/12/07 01:43:49;;;;;;;21.60;8.30;;;0.50;99.90;;;;;;5055668;28;20051;-82
2023/12/07 01:46:17;;;;;;;26.00;8.63;;;0.50;99.90;;;;;;5054193;28;20036;-82
2023/12/07 01:48:43;;;;;;;22.80;9.03;;;0.50;99.90;;;;;;5054365;28;20082;-82
2023/12/07 01:51:10;;;;;;;22.20;9.40;;;0.60;99.90;;;;;;5055313;28;20396;-82
2023/12/07 01:53:37;;;;;;;29.67;8.90;;;0.60;99.90;;;;;;5055568;28;20025;-82
2023/12/07 01:56:03;;;;;;;21.67;9.03;;;0.60;99.90;;;;;;5055367;28;20099;-82
2023/12/07 01:58:30;;;;;;;19.37;9.33;;;0.60;99.90;;;;;;5037418;28;20026;-82
2023/12/07 02:00:56;;;;;;;18.20;10.17;;;0.70;99.90;;;;;;5054181;28;20041;-82
2023/12/07 02:03:23;;;;;;;22.50;10.20;;;0.70;99.90;;;;;;5055175;28;20055;-81
2023/12/07 02:05:49;;;;;;;22.90;9.23;;;0.70;99.90;;;;;;5055199;28;20033;-82
2023/12/07 02:08:14;;;;;;;23.50;9.50;;;0.70;99.90;;;;;;5055227;28;20029;-82
2023/12/07 02:10:40;;;;;;;18.67;8.87;;;0.70;99.90;;;;;;5053895;28;20032;-82
2023/12/07 02:13:07;;;;;;;27.60;9.10;;;0.70;99.90;;;;;;5054875;28;20033;-82
2023/12/07 02:15:33;;;;;;;30.33;9.37;;;0.70;99.90;;;;;;5053850;28;20033;-82
2023/12/07 02:18:01;;;;;;;26.93;9.47;;;0.70;99.90;;;;;;5037229;28;20033;-82
2023/12/07 02:20:47;;;;;;;20.47;8.70;;;0.80;99.90;;;;;;5053624;28;20044;-82
2023/12/07 02:23:16;;;;;;;25.50;9.57;;;0.80;99.90;;;;;;5053686;28;20099;-82
2023/12/07 02:25:54;;;;;;;21.67;8.27;;;0.80;99.90;;;;;;5053707;28;20035;-82
2023/12/07 02:28:20;;;;;;;22.60;8.70;;;0.80;99.90;;;;;;5055015;28;20125;-82
2023/12/07 02:30:46;;;;;;;31.13;7.77;;;0.80;99.90;;;;;;5054969;28;20129;-82
2023/12/07 02:33:12;;;;;;;29.07;8.70;;;0.80;99.90;;;;;;5054971;28;20071;-82
2023/12/07 02:35:40;;;;;;;20.23;9.13;;;0.80;99.90;;;;;;5053486;28;20029;-82
2023/12/07 02:38:07;;;;;;;25.13;8.53;;;0.90;99.90;;;;;;5054645;28;20025;-82
2023/12/07 02:40:33;;;;;;;17.53;7.40;;;0.90;99.90;;;;;;5054534;28;20039;-82
2023/12/07 02:43:01;;;;;;;30.80;8.47;;;0.90;99.90;;;;;;5053082;28;20477;-82
2023/12/07 02:45:27;;;;;;;20.53;8.13;;;0.90;99.90;;;;;;5036474;28;20033;-82
2023/12/07 02:47:53;;;;;;;20.23;8.43;;;0.90;99.90;;;;;;5054429;28;20037;-82
2023/12/07 02:50:18;;;;;;;26.17;8.30;;;0.90;99.90;;;;;;5052730;28;20127;-82
2023/12/07 02:52:44;;;;;;;16.90;8.53;;;0.90;99.90;;;;;;5054268;28;20104;-82
2023/12/07 02:55:10;;;;;;;27.87;9.03;;;1.00;99.90;;;;;;5054642;28;20060;-82
2023/12/07 02:57:36;;;;;;;28.40;9.00;;;0.90;99.90;;;;;;5054040;28;20108;-82
2023/12/07 03:00:06;;;;;;;17.57;7.53;;;0.90;99.90;;;;;;5054164;28;20482;-82
2023/12/07 03:02:36;;;;;;;19.70;7.43;;;0.90;99.90;;;;;;5052759;28;20033;-82
2023/12/07 03:05:02;;;;;;;23.57;10.03;;;1.00;99.90;;;;;;5053710;28;20124;-82
2023/12/07 03:07:27;;;;;;;18.97;9.33;;;1.00;99.90;;;;;;5036206;28;20055;-82
2023/12/07 03:09:53;;;;;;;23.07;9.77;;;1.00;99.90;;;;;;5036107;28;20140;-82
2023/12/07 03:12:19;;;;;;;17.30;8.70;;;1.00;99.90;;;;;;5052502;28;20457;-82
2023/12/07 03:14:44;;;;;;;22.33;9.10;;;1.00;99.90;;;;;;5054008;28;20064;-83
2023/12/07 03:17:10;;;;;;;17.17;8.50;;;1.00;99.90;;;;;;5053837;28;20033;-82
2023/12/07 03:19:40;;;;;;;18.63;8.53;;;1.00;99.90;;;;;;5053251;28;20037;-82
2023/12/07 03:22:06;;;;;;;20.47;9.57;;;1.00;99.90;;;;;;5035824;28;20029;-82
2023/12/07 03:24:36;;;;;;;17.97;9.10;;;1.10;99.90;;;;;;5052589;28;20032;-82
2023/12/07 03:27:01;;;;;;;14.03;8.07;;;1.00;99.90;;;;;;5053768;28;20082;-82
2023/12/07 03:29:27;;;;;;;16.30;8.20;;;1.10;99.90;;;;;;5052473;28;20037;-82
2023/12/07 03:31:53;;;;;;;18.83;9.10;;;1.10;99.90;;;;;;5035409;28;20036;-82
2023/12/07 03:34:18;;;;;;;15.40;8.33;;;1.10;99.90;;;;;;5052359;28;20037;-82
2023/12/07 03:36:48;;;;;;;14.63;8.17;;;1.10;99.90;;;;;;5053552;28;20392;-80
2023/12/07 03:39:15;;;;;;;14.67;8.27;;;1.10;99.90;;;;;;5053516;28;20040;-82
2023/12/07 03:41:41;;;;;;;16.17;9.07;;;1.10;99.90;;;;;;5053516;28;20055;-82
2023/12/07 03:44:07;;;;;;;17.20;8.60;;;1.10;99.90;;;;;;5053150;28;20029;-82
2023/12/07 03:46:32;;;;;;;15.53;9.13;;;1.10;99.90;;;;;;5053317;28;20044;-82
2023/12/07 03:48:59;;;;;;;17.27;9.57;;;1.10;99.90;;;;;;5053331;28;20060;-82
2023/12/07 03:51:26;;;;;;;15.43;9.20;;;1.10;99.90;;;;;;5053751;28;20033;-82
2023/12/07 03:53:51;;;;;;;16.03;9.10;;;1.10;99.90;;;;;;5053440;28;20492;-82
2023/12/07 03:56:24;;;;;;;14.20;8.10;;;1.00;99.90;;;;;;5053197;28;20041;-82
2023/12/07 03:58:50;;;;;;;13.73;7.67;;;1.00;99.90;;;;;;5051886;28;20431;-82
2023/12/07 04:01:15;;;;;;;14.00;7.77;;;1.00;99.90;;;;;;5051165;28;20087;-82
2023/12/07 04:03:41;;;;;;;14.73;8.43;;;1.00;99.90;;;;;;5052944;28;20513;-82
2023/12/07 04:06:07;;;;;;;14.77;8.97;;;0.90;99.90;;;;;;5053183;28;20062;-82
2023/12/07 04:08:33;;;;;;;16.30;8.30;;;0.90;99.90;;;;;;5052932;28;20029;-82
2023/12/07 04:10:58;;;;;;;13.63;7.87;;;0.90;99.90;;;;;;5035232;28;20040;-82
2023/12/07 04:13:24;;;;;;;16.37;8.20;;;0.90;99.90;;;;;;5052961;28;20500;-82
2023/12/07 04:15:50;;;;;;;14.57;8.43;;;0.90;99.90;;;;;;5034830;28;20033;-82
2023/12/07 04:18:16;;;;;;;14.50;8.37;;;0.90;99.90;;;;;;5051681;28;20061;-80
2023/12/07 04:20:41;;;;;;;14.63;8.60;;;0.80;99.90;;;;;;5052879;28;20405;-80
2023/12/07 04:23:07;;;;;;;18.17;10.50;;;0.90;99.90;;;;;;5052955;28;20500;-80
2023/12/07 04:25:32;;;;;;;16.70;8.37;;;0.80;99.90;;;;;;5034892;28;20036;-80
2023/12/07 04:27:59;;;;;;;16.40;9.03;;;0.90;99.90;;;;;;5052568;28;20045;-80
2023/12/07 04:30:25;;;;;;;15.73;8.80;;;0.90;99.90;;;;;;5034719;28;20028;-79
2023/12/07 04:32:50;;;;;;;19.73;9.30;;;0.90;99.90;;;;;;5052839;28;20112;-82
2023/12/07 04:35:16;;;;;;;18.13;10.27;;;0.90;99.90;;;;;;5052797;28;20060;-82
2023/12/07 04:37:42;;;;;;;16.80;9.57;;;0.90;99.90;;;;;;5051662;28;20017;-82
2023/12/07 04:40:08;;;;;;;15.30;8.93;;;0.90;99.90;;;;;;5052500;28;20041;-82
2023/12/07 04:42:34;;;;;;;15.90;9.53;;;1.00;99.90;;;;;;5033729;28;20052;-82
2023/12/07 04:44:59;;;;;;;16.97;8.77;;;1.00;99.90;;;;;;5031325;28;20057;-82
2023/12/07 04:47:25;;;;;;;17.43;9.87;;;1.10;99.90;;;;;;5015132;28;20457;-80
2023/12/07 04:49:50;;;;;;;27.60;11.63;;;1.20;99.90;;;;;;5014702;28;20092;-80
2023/12/07 04:52:16;;;;;;;24.47;11.53;;;1.20;99.90;;;;;;5015118;28;20034;-82
2023/12/07 04:54:42;;;;;;;32.50;10.73;;;1.20;99.90;;;;;;5015246;28;20037;-80
2023/12/07 04:57:08;;;;;;;40.87;12.07;;;1.30;99.90;;;;;;5033146;28;20552;-81
2023/12/07 04:59:35;;;;;;;43.10;11.53;;;1.30;99.90;;;;;;5033568;28;20453;-78
2023/12/07 05:02:00;;;;;;;49.20;12.30;;;1.30;99.90;;;;;;5032601;28;20096;-81
2023/12/07 05:04:26;;;;;;;37.63;11.63;;;1.30;99.90;;;;;;5038112;28;20485;-81
2023/12/07 05:06:51;;;;;;;33.50;11.50;;;1.30;99.90;;;;;;5034215;28;20498;-81
2023/12/07 05:09:17;;;;;;;53.40;12.37;;;1.30;99.90;;;;;;5052271;28;20033;-81
2023/12/07 05:11:44;;;;;;;28.77;11.53;;;1.30;99.90;;;;;;5052685;28;20034;-81
2023/12/07 05:14:10;;;;;;;43.07;10.90;;;1.30;99.90;;;;;;5055974;28;20504;-80
2023/12/07 05:16:36;;;;;;;39.43;12.07;;;1.30;99.90;;;;;;5047184;28;20043;-81
2023/12/07 05:19:02;;;;;;;38.03;12.10;;;1.30;99.90;;;;;;5054689;28;20029;-81
2023/12/07 05:21:28;;;;;;;34.13;12.10;;;1.30;99.90;;;;;;5055770;28;20025;-81
2023/12/07 05:23:53;;;;;;;37.23;13.17;;;1.30;99.90;;;;;;5056027;28;20094;-81
2023/12/07 05:26:21;;;;;;;32.60;12.10;;;1.30;99.90;;;;;;5056035;28;20033;-81
2023/12/07 05:28:47;;;;;;;45.93;11.53;;;1.30;99.90;;;;;;5054163;28;20119;-80
2023/12/07 05:31:17;;;;;;;32.23;10.90;;;1.30;99.90;;;;;;5037990;28;20460;-81
2023/12/07 05:33:42;;;;;;;34.77;11.00;;;1.30;99.90;;;;;;5038021;28;20105;-81
2023/12/07 05:36:08;;;;;;;28.47;11.00;;;1.30;99.90;;;;;;5055939;28;20033;-81
2023/12/07 05:38:34;;;;;;;42.87;11.40;;;1.30;99.90;;;;;;5038123;28;20369;-81
2023/12/07 05:40:59;;;;;;;25.77;11.90;;;1.30;99.90;;;;;;5037536;28;20136;-81
2023/12/07 05:43:25;;;;;;;34.00;12.43;;;1.30;99.90;;;;;;5037526;28;20082;-81
2023/12/07 05:45:51;;;;;;;30.23;11.43;;;1.30;99.90;;;;;;5037782;28;20029;-81
2023/12/07 05:48:17;;;;;;;34.87;11.13;;;1.30;99.90;;;;;;5037860;28;20473;-81
2023/12/07 05:50:42;;;;;;;35.63;11.23;;;1.30;99.90;;;;;;5055334;28;20043;-81
2023/12/07 05:53:08;;;;;;;35.27;11.47;;;1.30;99.90;;;;;;5055335;28;20041;-81
2023/12/07 05:55:34;;;;;;;31.73;12.33;;;1.30;99.90;;;;;;5054307;28;20047;-83
2023/12/07 05:58:00;;;;;;;25.23;11.50;;;1.30;99.90;;;;;;5055300;28;20133;-82
2023/12/07 06:00:25;;;;;;;27.93;10.97;;;1.30;99.90;;;;;;5054281;28;20059;-82
2023/12/07 06:02:51;;;;;;;43.20;12.53;;;1.30;99.90;;;;;;5055430;28;20083;-83
2023/12/07 06:05:17;;;;;;;26.77;12.73;;;1.30;99.90;;;;;;5055390;28;20521;-82
2023/12/07 06:07:43;;;;;;;44.47;11.87;;;1.30;99.90;;;;;;5055423;28;20433;-82
2023/12/07 06:10:09;;;;;;;47.83;13.37;;;1.30;99.90;;;;;;5053914;28;20075;-82
2023/12/07 06:12:35;;;;;;;32.90;12.07;;;1.30;99.90;;;;;;5054807;28;20033;-80
2023/12/07 06:15:00;;;;;;;32.87;12.00;;;1.40;99.90;;;;;;5037371;28;20133;-81
2023/12/07 06:17:26;;;;;;;39.03;12.17;;;1.30;99.90;;;;;;5053557;28;20029;-82
2023/12/07 06:19:52;;;;;;;32.10;12.47;;;1.30;99.90;;;;;;5054775;28;20493;-82
2023/12/07 06:22:18;;;;;;;51.63;14.63;;;1.30;99.90;;;;;;5037147;28;20095;-82
2023/12/07 06:24:44;;;;;;;33.90;13.40;;;1.30;99.90;;;;;;5054049;28;20342;-81
2023/12/07 06:27:10;;;;;;;34.67;13.90;;;1.30;99.90;;;;;;5036712;28;20028;-82
2023/12/07 06:29:36;;;;;;;38.53;14.83;;;1.30;99.90;;;;;;5036836;28;20481;-82
2023/12/07 06:32:01;;;;;;;33.03;12.67;;;1.30;99.90;;;;;;5054987;28;20040;-81
2023/12/07 06:34:28;;;;;;;34.63;12.00;;;1.30;99.90;;;;;;5053621;28;20175;-82
2023/12/07 06:36:53;;;;;;;36.03;13.90;;;1.30;99.90;;;;;;5054291;28;20512;-82
2023/12/07 06:39:19;;;;;;;30.97;13.07;;;1.30;99.90;;;;;;5051334;28;20041;-82
2023/12/07 06:41:45;;;;;;;25.93;12.20;;;1.30;99.90;;;;;;5046645;28;20160;-81
2023/12/07 06:44:10;;;;;;;32.03;13.33;;;1.30;99.90;;;;;;5051216;28;20082;-81
2023/12/07 06:46:36;;;;;;;38.80;14.17;;;1.40;99.90;;;;;;5047468;28;20033;-82
2023/12/07 06:49:02;;;;;;;39.37;13.03;;;1.30;99.90;;;;;;5030767;28;20029;-82
2023/12/07 06:51:27;;;;;;;46.90;13.43;;;1.40;99.90;;;;;;5052930;28;20029;-82
2023/12/07 06:53:53;;;;;;;44.60;14.23;;;1.40;99.90;;;;;;5035328;28;20397;-82
2023/12/07 06:56:18;;;;;;;42.23;14.03;;;1.40;99.90;;;;;;5035149;28;20120;-81
2023/12/07 06:58:44;;;;;;;21.27;11.53;;;1.40;99.90;;;;;;5036240;28;20037;-81
2023/12/07 07:01:10;;;;;;;24.03;11.30;;;1.40;99.90;;;;;;5054283;28;20037;-82
2023/12/07 07:03:35;;;;;;;30.47;13.17;;;1.40;99.90;;;;;;5036859;28;20025;-81
2023/12/07 07:06:01;;;;;;;38.67;13.47;;;1.30;99.90;;;;;;5074088;28;20064;-81
2023/12/07 07:08:26;;;;;;;53.03;12.97;;;1.30;99.90;;;;;;5056035;28;20441;-83
2023/12/07 07:10:52;;;;;;;30.40;12.97;;;1.30;99.90;;;;;;5071922;28;20159;-83
2023/12/07 07:13:20;;;;;;;35.23;13.23;;;1.40;99.90;;;;;;5072685;28;20040;-83
2023/12/07 07:15:45;;;;;;;31.23;13.30;;;1.30;99.90;;;;;;5073360;28;20507;-83
2023/12/07 07:18:11;;;;;;;25.07;13.80;;;1.30;99.90;;;;;;5073999;28;20033;-83
2023/12/07 07:20:37;;;;;;;34.07;13.97;;;1.40;99.90;;;;;;5072244;28;20083;-83
2023/12/07 07:23:03;;;;;;;29.17;13.83;;;1.40;99.90;;;;;;5072322;28;20024;-83
2023/12/07 07:25:28;;;;;;;27.97;15.33;;;1.30;99.90;;;;;;5071961;28;20128;-82
2023/12/07 07:27:54;;;;;;;31.33;15.53;;;1.30;99.90;;;;;;5072030;28;20111;-83
2023/12/07 07:30:21;;;;;;;29.50;13.87;;;1.30;99.90;;;;;;5062990;28;20043;-83
2023/12/07 07:32:46;;;;;;;27.83;13.50;;;1.30;99.90;;;;;;5071957;28;20135;-84
2023/12/07 07:35:12;;;;;;;39.97;13.23;;;1.40;99.90;;;;;;5073319;28;20104;-83
2023/12/07 07:37:43;;;;;;;31.03;14.40;;;1.40;99.90;;;;;;5072037;28;20063;-82
2023/12/07 07:40:11;;;;;;;32.53;14.13;;;1.30;99.90;;;;;;5071793;28;20037;-80
2023/12/07 07:42:39;;;;;;;37.63;14.80;;;1.30;99.90;;;;;;5071863;28;20476;-82
2023/12/07 07:45:09;;;;;;;36.50;12.90;;;1.30;99.90;;;;;;5073879;28;20063;-83
2023/12/07 07:47:35;;;;;;;36.53;14.27;;;1.20;99.90;;;;;;5073320;28;20028;-82
2023/12/07 07:50:05;;;;;;;27.47;13.60;;;1.20;99.90;;;;;;5073275;28;20028;-82
2023/12/07 07:52:32;;;;;;;39.40;14.33;;;1.20;99.90;;;;;;5071953;28;20036;-82
2023/12/07 07:54:58;;;;;;;29.17;12.67;;;1.20;99.90;;;;;;5071696;28;20385;-83
2023/12/07 07:57:23;;;;;;;43.03;13.10;;;1.30;99.90;;;;;;5071900;28;20089;-81
2023/12/07 07:59:49;;;;;;;45.63;14.10;;;1.30;99.90;;;;;;5071732;28;20033;-81
2023/12/07 08:02:15;;;;;;;35.07;14.00;;;1.30;99.90;;;;;;5071864;28;20473;-81
2023/12/07 08:04:40;;;;;;;26.43;13.07;;;1.30;99.90;;;;;;5063152;28;20493;-81
2023/12/07 08:07:07;;;;;;;40.47;13.27;;;1.30;99.90;;;;;;5054948;28;20047;-81
2023/12/07 08:09:33;;;;;;;32.67;15.17;;;1.30;99.90;;;;;;5071472;28;20044;-81
2023/12/07 08:11:58;;;;;;;32.23;13.37;;;1.30;99.90;;;;;;5073510;28;20396;-81
2023/12/07 08:14:24;;;;;;;25.60;14.13;;;1.40;99.90;;;;;;5071867;28;20481;-81
2023/12/07 08:16:50;;;;;;;30.73;13.57;;;1.40;99.90;;;;;;5071496;28;20033;-81
2023/12/07 08:19:15;;;;;;;26.23;13.83;;;1.40;99.90;;;;;;5073044;28;20044;-81
2023/12/07 08:21:41;;;;;;;31.83;14.37;;;1.40;99.90;;;;;;5071611;28;20029;-80
2023/12/07 08:24:07;;;;;;;35.37;15.30;;;1.40;99.90;;;;;;5071609;28;20373;-83
2023/12/07 08:26:32;;;;;;;29.30;14.00;;;1.40;99.90;;;;;;5071586;28;20067;-80
2023/12/07 08:28:58;;;;;;;41.43;14.87;;;1.40;99.90;;;;;;5071292;28;20059;-82
2023/12/07 08:31:24;;;;;;;40.63;14.37;;;1.40;99.90;;;;;;5072835;28;20112;-81
2023/12/07 08:33:51;;;;;;;44.70;15.07;;;1.40;99.90;;;;;;5071474;28;20029;-82
2023/12/07 08:36:17;;;;;;;48.03;14.77;;;1.40;99.90;;;;;;5072525;28;20044;-82
2023/12/07 08:38:42;;;;;;;31.93;13.87;;;1.40;99.90;;;;;;5072688;28;20033;-80
2023/12/07 08:41:08;;;;;;;40.13;15.60;;;1.40;99.90;;;;;;5072322;28;20045;-81
2023/12/07 08:43:34;;;;;;;33.23;14.53;;;1.40;99.90;;;;;;5071646;28;20064;-81
2023/12/07 08:45:59;;;;;;;44.33;14.97;;;1.50;99.90;;;;;;5071591;28;20458;-81
2023/12/07 08:48:25;;;;;;;37.47;14.67;;;1.40;99.90;;;;;;5076101;28;20028;-80
2023/12/07 08:50:51;;;;;;;29.00;14.47;;;1.40;99.90;;;;;;5075174;28;20039;-82
2023/12/07 08:53:17;;;;;;;37.63;13.90;;;1.50;99.90;;;;;;5076325;28;20489;-82
2023/12/07 08:55:42;;;;;;;34.03;13.30;;;1.50;99.90;;;;;;5076686;28;20033;-83
2023/12/07 08:58:10;;;;;;;30.10;14.43;;;1.50;99.90;;;;;;5076557;28;20484;-82
2023/12/07 09:00:37;;;;;;;32.43;14.30;;;1.50;99.90;;;;;;5076252;28;20051;-82
2023/12/07 09:03:03;;;;;;;30.10;15.87;;;1.60;99.90;;;;;;5075238;28;20040;-82
2023/12/07 09:05:29;;;;;;;30.03;14.30;;;1.60;99.90;;;;;;5071505;28;20041;-82
2023/12/07 09:07:56;;;;;;;31.43;15.97;;;1.60;99.90;;;;;;5056530;28;20467;-80
2023/12/07 09:10:22;;;;;;;30.33;13.77;;;1.60;99.90;;;;;;5071481;28;20032;-80
2023/12/07 09:12:48;;;;;;;37.23;15.00;;;1.70;99.90;;;;;;5071732;28;20078;-82
2023/12/07 09:15:13;;;;;;;34.77;14.63;;;1.60;99.90;;;;;;5056709;28;20415;-80
2023/12/07 09:17:39;;;;;;;32.80;14.20;;;1.60;99.90;;;;;;5072202;28;20167;-82
2023/12/07 09:20:11;;;;;;;27.30;13.57;;;1.60;99.90;;;;;;5056131;28;20460;-82
2023/12/07 09:22:44;;;;;;;27.90;14.43;;;1.60;99.90;;;;;;5071588;28;20099;-80
2023/12/07 09:25:10;;;;;;;32.03;13.30;;;1.70;99.90;;;;;;5071493;28;20076;-80
2023/12/07 09:27:39;;;;;;;27.20;12.60;;;1.80;99.90;;;;;;5056009;28;20033;-81
2023/12/07 09:30:07;;;;;;;29.97;12.93;;;1.60;99.90;;;;;;5055776;28;20033;-80
2023/12/07 09:32:37;;;;;;;25.87;12.63;;;1.60;99.90;;;;;;5055923;28;20029;-80
2023/12/07 09:35:06;;;;;;;23.20;11.87;;;1.70;99.90;;;;;;5071197;28;20033;-81
2023/12/07 09:37:33;;;;;;;25.17;10.90;;;1.70;99.90;;;;;;5056190;28;20036;-80
2023/12/07 09:39:59;;;;;;;21.73;11.40;;;1.70;99.90;;;;;;5056047;28;20037;-81
2023/12/07 09:42:25;;;;;;;19.13;10.83;;;1.60;99.90;;;;;;5071020;28;20079;-81
2023/12/07 09:44:51;;;;;;;20.07;9.50;;;1.60;99.90;;;;;;5056144;28;20107;-81
2023/12/07 09:47:17;;;;;;;21.37;9.43;;;1.60;99.90;;;;;;5071149;28;20116;-81
2023/12/07 09:49:43;;;;;;;20.60;10.20;;;1.60;99.90;;;;;;5055690;28;20424;-81
2023/12/07 09:52:11;;;;;;;18.87;9.73;;;1.70;99.90;;;;;;5055767;28;20033;-81
2023/12/07 09:54:41;;;;;;;19.10;9.83;;;1.70;99.90;;;;;;5055486;28;20029;-81
2023/12/07 09:57:09;;;;;;;18.40;10.13;;;1.70;99.90;;;;;;5071288;28;20480;-81
2023/12/07 09:59:35;;;;;;;17.13;9.63;;;1.70;99.90;;;;;;5054221;28;20029;-80
2023/12/07 10:02:01;;;;;;;17.60;9.57;;;1.70;99.90;;;;;;5055342;28;20033;-81
2023/12/07 10:04:27;;;;;;;17.37;9.47;;;1.70;99.90;;;;;;5070669;28;20025;-82
2023/12/07 10:06:53;;;;;;;16.80;9.73;;;1.70;99.90;;;;;;5074573;28;20052;-81
2023/12/07 10:09:21;;;;;;;14.63;8.03;;;1.70;99.90;;;;;;5057185;28;20028;-81
2023/12/07 10:11:47;;;;;;;20.43;9.27;;;1.70;99.90;;;;;;5075187;28;20485;-81
2023/12/07 10:14:14;;;;;;;19.17;9.47;;;1.70;99.90;;;;;;5075160;28;20028;-81
2023/12/07 10:16:53;;;;;;;19.07;9.67;;;1.70;99.90;;;;;;5075111;28;20031;-82
2023/12/07 10:19:21;;;;;;;16.83;8.37;;;1.80;99.90;;;;;;5056680;28;20768;-82
2023/12/07 10:21:50;;;;;;;20.67;9.30;;;1.80;99.90;;;;;;5075002;28;20032;-81
2023/12/07 10:24:17;;;;;;;16.87;8.60;;;1.80;99.90;;;;;;5057030;28;20032;-81
2023/12/07 10:26:44;;;;;;;20.37;8.83;;;2.00;99.90;;;;;;5056842;28;20502;-82
2023/12/07 10:29:10;;;;;;;18.73;9.03;;;1.90;99.90;;;;;;5074817;28;20123;-82
2023/12/07 10:31:36;;;;;;;18.63;9.03;;;2.00;99.90;;;;;;5056675;28;20033;-82
2023/12/07 10:34:02;;;;;;;18.37;8.90;;;2.10;99.90;;;;;;5056648;28;20033;-82
2023/12/07 10:36:28;;;;;;;23.73;9.70;;;2.10;99.90;;;;;;5056826;28;20032;-82
2023/12/07 10:38:54;;;;;;;18.13;8.93;;;2.10;99.90;;;;;;5056832;28;20056;-81
2023/12/07 10:41:21;;;;;;;20.57;9.33;;;2.20;99.90;;;;;;5056053;28;20059;-81
2023/12/07 10:43:57;;;;;;;19.33;8.57;;;2.30;99.90;;;;;;5074786;28;20082;-81
2023/12/07 10:46:23;;;;;;;21.23;8.73;;;2.30;99.90;;;;;;5074592;28;20123;-81
2023/12/07 10:48:54;;;;;;;19.03;9.53;;;2.30;99.90;;;;;;5074299;28;20465;-82
2023/12/07 10:51:29;;;;;;;22.57;10.20;;;2.40;99.90;;;;;;5073245;28;20028;-81
2023/12/07 10:53:58;;;;;;;20.17;9.87;;;2.40;99.90;;;;;;5056728;28;20457;-81
2023/12/07 10:56:45;;;;;;;25.63;11.30;;;2.50;99.90;;;;;;5056266;28;20025;-81
2023/12/07 10:59:12;;;;;;;24.20;10.77;;;2.50;99.90;;;;;;5074131;28;20028;-81
2023/12/07 11:01:42;;;;;;;25.53;11.73;;;2.50;99.90;;;;;;5072702;28;20024;-81
2023/12/07 11:04:11;;;;;;;32.23;14.13;;;2.60;99.90;;;;;;5074274;28;20132;-81
2023/12/07 11:06:37;;;;;;;28.37;13.57;;;2.60;99.90;;;;;;5069737;28;20381;-81
2023/12/07 11:09:07;;;;;;;26.73;13.07;;;2.70;99.90;;;;;;5054130;28;20033;-81
2023/12/07 11:11:42;;;;;;;29.90;11.53;;;2.70;99.90;;;;;;5054319;28;20033;-80
2023/12/07 11:14:12;;;;;;;27.30;11.97;;;2.70;99.90;;;;;;5069538;28;20071;-80
2023/12/07 11:16:41;;;;;;;26.53;11.90;;;2.80;99.90;;;;;;5053775;28;20033;-80
2023/12/07 11:19:32;;;;;;;27.90;13.80;;;2.80;99.90;;;;;;5053858;28;20029;-81
2023/12/07 11:21:59;;;;;;;32.53;14.23;;;2.90;99.90;;;;;;5052306;28;20115;-80
2023/12/07 11:24:25;;;;;;;36.40;15.40;;;2.90;99.90;;;;;;5054072;28;20029;-80
2023/12/07 11:26:55;;;;;;;35.27;15.27;;;3.00;99.90;;;;;;5053956;28;20037;-80
2023/12/07 11:29:29;;;;;;;35.23;14.83;;;3.00;99.90;;;;;;5053704;28;20043;-80
2023/12/07 11:32:02;;;;;;;33.00;14.53;;;3.10;99.90;;;;;;5053465;28;20033;-79
2023/12/07 11:34:41;;;;;;;31.63;14.55;;;3.10;99.90;;;;;;5053677;28;20029;-80
2023/12/07 11:37:14;;;;;;;33.93;15.37;;;3.10;99.90;;;;;;5068991;28;20036;-80
2023/12/07 11:39:46;;;;;;;34.37;15.53;;;3.20;99.90;;;;;;5053358;28;20033;-80
2023/12/07 11:42:17;;;;;;;33.30;14.73;;;3.20;99.90;;;;;;5053481;28;20045;-81
2023/12/07 11:44:47;;;;;;;35.00;16.63;;;3.30;99.90;;;;;;5053271;28;20493;-81
2023/12/07 11:47:19;;;;;;;33.87;16.10;;;3.30;99.90;;;;;;5053245;28;20033;-81
2023/12/07 11:49:45;;;;;;;35.57;17.23;;;3.40;99.90;;;;;;5068862;28;20048;-81
2023/12/07 11:52:20;;;;;;;38.20;17.20;;;3.40;99.90;;;;;;5068645;28;20033;-81
2023/12/07 11:54:50;;;;;;;37.23;18.10;;;3.50;99.90;;;;;;5053096;28;20055;-80
2023/12/07 11:57:16;;;;;;;34.23;16.83;;;3.60;99.90;;;;;;5053885;28;20039;-81
2023/12/07 11:59:44;;;;;;;35.87;16.73;;;3.70;99.90;;;;;;5052976;28;20032;-81
2023/12/07 12:02:13;;;;;;;31.73;16.60;;;3.70;99.90;;;;;;5068796;28;20025;-81
2023/12/07 12:04:42;;;;;;;34.43;17.67;;;3.80;99.90;;;;;;5053939;28;20044;-80
2023/12/07 12:07:08;;;;;;;34.80;17.97;;;3.80;99.90;;;;;;5073385;28;20038;-81
2023/12/07 12:09:34;;;;;;;36.73;18.37;;;3.80;99.90;;;;;;5073344;28;20036;-80
2023/12/07 12:12:00;;;;;;;36.43;18.50;;;3.80;99.90;;;;;;5072048;28;20032;-81
2023/12/07 12:14:28;;;;;;;33.50;17.20;;;3.90;99.90;;;;;;5071597;28;20488;-81
2023/12/07 12:16:53;;;;;;;35.47;18.03;;;3.80;99.90;;;;;;5073143;28;20032;-80
2023/12/07 12:19:20;;;;;;;32.27;16.53;;;3.90;99.90;;;;;;5073197;28;20029;-80
2023/12/07 12:21:46;;;;;;;44.67;18.83;;;3.90;99.90;;;;;;5072269;28;20036;-81
2023/12/07 12:24:12;;;;;;;40.17;21.13;;;4.00;99.90;;;;;;5071820;28;20035;-81
2023/12/07 12:26:43;;;;;;;38.57;19.73;;;4.10;99.90;;;;;;5072726;28;20098;-81
2023/12/07 12:29:11;;;;;;;39.27;19.37;;;4.10;99.90;;;;;;5071234;28;20036;-80
2023/12/07 12:31:37;;;;;;;41.73;19.70;;;4.10;99.90;;;;;;5072974;28;20033;-80
2023/12/07 12:34:05;;;;;;;37.83;18.97;;;4.20;99.90;;;;;;5071533;28;20495;-81
2023/12/07 12:36:31;;;;;;;37.43;18.47;;;4.10;99.90;;;;;;5072853;28;20074;-81
2023/12/07 12:38:56;;;;;;;39.77;19.20;;;4.10;99.90;;;;;;5072611;28;20100;-81